createdAt,value
2017-09-27T00:00:56.355Z,1017.27
2017-09-27T00:01:50.449Z,1017.28
2017-09-27T00:02:38.439Z,1017.29
2017-09-27T00:03:27.902Z,1017.26
2017-09-27T00:04:15.551Z,1017.27
2017-09-27T00:05:03.607Z,1017.29
2017-09-27T00:05:53.240Z,1017.26
2017-09-27T00:06:47.630Z,1017.27
2017-09-27T00:07:36.718Z,1017.28
2017-09-27T00:08:31.917Z,1017.26
2017-09-27T00:09:31.847Z,1017.27
2017-09-27T00:10:26.105Z,1017.29
2017-09-27T00:11:31.970Z,1017.29
2017-09-27T00:12:31.841Z,1017.24
2017-09-27T00:13:26.879Z,1017.24
2017-09-27T00:14:26.886Z,1017.25
2017-09-27T00:15:27.300Z,1017.25
2017-09-27T00:16:26.956Z,1017.23
2017-09-27T00:17:33.002Z,1017.21
2017-09-27T00:18:33.044Z,1017.21
2017-09-27T00:19:27.055Z,1017.20
2017-09-27T00:20:27.440Z,1017.19
2017-09-27T00:21:22.481Z,1017.22
2017-09-27T00:22:10.157Z,1017.19
2017-09-27T00:22:58.215Z,1017.19
2017-09-27T00:23:46.251Z,1017.16
2017-09-27T00:24:35.305Z,1017.19
2017-09-27T00:25:23.592Z,1017.18
2017-09-27T00:26:11.357Z,1017.19
2017-09-27T00:27:05.374Z,1017.16
2017-09-27T00:27:53.437Z,1017.19
2017-09-27T00:28:42.539Z,1017.19
2017-09-27T00:29:37.551Z,1017.16
2017-09-27T00:30:37.949Z,1017.16
2017-09-27T00:31:37.583Z,1017.17
2017-09-27T00:32:26.641Z,1017.16
2017-09-27T00:33:14.641Z,1017.17
2017-09-27T00:34:03.719Z,1017.16
2017-09-27T00:34:58.782Z,1017.17
2017-09-27T00:35:48.231Z,1017.17
2017-09-27T00:36:35.829Z,1017.19
2017-09-27T00:37:29.856Z,1017.16
2017-09-27T00:38:24.872Z,1017.14
2017-09-27T00:39:24.942Z,1017.19
2017-09-27T00:40:18.969Z,1017.15
2017-09-27T00:41:19.372Z,1017.15
2017-09-27T00:42:14.170Z,1017.13
2017-09-27T00:43:09.070Z,1017.10
2017-09-27T00:44:09.128Z,1017.17
2017-09-27T00:45:04.629Z,1017.11
2017-09-27T00:45:59.516Z,1017.15
2017-09-27T00:46:59.512Z,1017.10
2017-09-27T00:47:54.235Z,1017.13
2017-09-27T00:48:48.266Z,1017.11
2017-09-27T00:49:43.305Z,1017.12
2017-09-27T00:50:37.739Z,1017.10
2017-09-27T00:51:32.406Z,1017.12
2017-09-27T00:52:21.641Z,1017.07
2017-09-27T00:53:16.492Z,1017.08
2017-09-27T00:54:11.456Z,1017.05
2017-09-27T00:55:06.772Z,1017.04
2017-09-27T00:56:01.538Z,1017.02
2017-09-27T00:56:56.621Z,1017.02
2017-09-27T00:57:50.624Z,1017.05
2017-09-27T00:58:45.635Z,1017.03
2017-09-27T00:59:45.659Z,1017.03
2017-09-27T01:00:40.995Z,1017.03
2017-09-27T01:01:35.739Z,1017.03
2017-09-27T01:02:29.815Z,1016.97
2017-09-27T01:03:23.844Z,1016.97
2017-09-27T01:04:11.994Z,1016.99
2017-09-27T01:05:00.881Z,1016.96
2017-09-27T01:05:49.375Z,1016.98
2017-09-27T01:06:36.967Z,1016.96
2017-09-27T01:07:26.046Z,1016.96
2017-09-27T01:08:14.106Z,1016.95
2017-09-27T01:09:02.116Z,1016.97
2017-09-27T01:09:51.418Z,1016.94
2017-09-27T01:10:39.212Z,1016.97
2017-09-27T01:11:28.241Z,1016.97
2017-09-27T01:12:16.262Z,1016.97
2017-09-27T01:13:04.458Z,1016.96
2017-09-27T01:13:53.427Z,1016.96
2017-09-27T01:14:41.375Z,1016.95
2017-09-27T01:15:30.840Z,1016.92
2017-09-27T01:16:18.457Z,1016.92
2017-09-27T01:17:12.816Z,1016.89
2017-09-27T01:18:00.560Z,1016.91
2017-09-27T01:18:54.666Z,1016.88
2017-09-27T01:19:42.648Z,1016.87
2017-09-27T01:20:30.630Z,1016.87
2017-09-27T01:21:18.740Z,1016.85
2017-09-27T01:22:06.779Z,1016.87
2017-09-27T01:22:56.000Z,1016.84
2017-09-27T01:23:43.854Z,1016.81
2017-09-27T01:24:33.330Z,1016.82
2017-09-27T01:25:20.940Z,1016.83
2017-09-27T01:26:08.962Z,1016.81
2017-09-27T01:26:57.029Z,1016.84
2017-09-27T01:27:46.050Z,1016.82
2017-09-27T01:28:34.137Z,1016.84
2017-09-27T01:29:23.191Z,1016.83
2017-09-27T01:30:11.496Z,1016.78
2017-09-27T01:30:59.257Z,1016.84
2017-09-27T01:31:53.251Z,1016.82
2017-09-27T01:32:41.314Z,1016.83
2017-09-27T01:33:30.344Z,1016.82
2017-09-27T01:34:18.373Z,1016.79
2017-09-27T01:35:06.540Z,1016.82
2017-09-27T01:35:55.872Z,1016.84
2017-09-27T01:36:43.534Z,1016.81
2017-09-27T01:37:31.543Z,1016.80
2017-09-27T01:38:20.750Z,1016.80
2017-09-27T01:39:08.654Z,1016.80
2017-09-27T01:39:56.940Z,1016.81
2017-09-27T01:40:45.723Z,1016.81
2017-09-27T01:41:33.771Z,1016.80
2017-09-27T01:42:22.168Z,1016.82
2017-09-27T01:43:10.844Z,1016.81
2017-09-27T01:43:58.898Z,1016.82
2017-09-27T01:44:46.897Z,1016.82
2017-09-27T01:45:35.956Z,1016.80
2017-09-27T01:46:24.023Z,1016.81
2017-09-27T01:47:12.332Z,1016.82
2017-09-27T01:48:00.066Z,1016.82
2017-09-27T01:48:49.133Z,1016.82
2017-09-27T01:49:37.161Z,1016.81
2017-09-27T01:50:32.365Z,1016.80
2017-09-27T01:51:21.245Z,1016.77
2017-09-27T01:52:09.277Z,1016.79
2017-09-27T01:53:03.341Z,1016.78
2017-09-27T01:53:57.347Z,1016.77
2017-09-27T01:54:45.412Z,1016.80
2017-09-27T01:55:34.452Z,1016.79
2017-09-27T01:56:23.461Z,1016.79
2017-09-27T01:57:24.514Z,1016.78
2017-09-27T01:58:25.561Z,1016.81
2017-09-27T01:59:25.557Z,1016.81
2017-09-27T02:00:25.639Z,1016.82
2017-09-27T02:01:25.643Z,1016.80
2017-09-27T02:02:31.651Z,1016.81
2017-09-27T02:03:25.714Z,1016.82
2017-09-27T02:04:20.733Z,1016.83
2017-09-27T02:05:15.755Z,1016.83
2017-09-27T02:06:09.796Z,1016.85
2017-09-27T02:06:58.844Z,1016.84
2017-09-27T02:07:47.892Z,1016.81
2017-09-27T02:08:35.886Z,1016.80
2017-09-27T02:09:29.947Z,1016.79
2017-09-27T02:10:19.032Z,1016.78
2017-09-27T02:11:14.036Z,1016.80
2017-09-27T02:12:14.056Z,1016.79
2017-09-27T02:13:09.062Z,1016.78
2017-09-27T02:14:09.124Z,1016.78
2017-09-27T02:15:03.149Z,1016.79
2017-09-27T02:15:52.681Z,1016.82
2017-09-27T02:16:40.234Z,1016.84
2017-09-27T02:17:28.251Z,1016.80
2017-09-27T02:18:16.294Z,1016.82
2017-09-27T02:19:04.361Z,1016.83
2017-09-27T02:20:05.821Z,1016.82
2017-09-27T02:21:05.433Z,1016.85
2017-09-27T02:21:54.454Z,1016.86
2017-09-27T02:22:43.518Z,1016.85
2017-09-27T02:23:31.812Z,1016.84
2017-09-27T02:24:19.598Z,1016.88
2017-09-27T02:25:08.649Z,1016.84
2017-09-27T02:25:56.890Z,1016.84
2017-09-27T02:26:50.740Z,1016.84
2017-09-27T02:27:50.744Z,1016.84
2017-09-27T02:28:45.782Z,1016.83
2017-09-27T02:29:45.819Z,1016.85
2017-09-27T02:30:39.931Z,1016.81
2017-09-27T02:31:39.871Z,1016.82
2017-09-27T02:32:35.039Z,1016.84
2017-09-27T02:33:28.949Z,1016.81
2017-09-27T02:34:22.961Z,1016.84
2017-09-27T02:35:23.118Z,1016.80
2017-09-27T02:36:18.041Z,1016.78
2017-09-27T02:37:12.068Z,1016.78
2017-09-27T02:38:12.485Z,1016.76
2017-09-27T02:39:12.454Z,1016.78
2017-09-27T02:40:07.238Z,1016.80
2017-09-27T02:40:56.772Z,1016.77
2017-09-27T02:41:44.272Z,1016.78
2017-09-27T02:42:44.274Z,1016.77
2017-09-27T02:43:39.325Z,1016.79
2017-09-27T02:44:39.383Z,1016.77
2017-09-27T02:45:33.851Z,1016.79
2017-09-27T02:46:34.434Z,1016.79
2017-09-27T02:47:35.447Z,1016.77
2017-09-27T02:48:29.567Z,1016.77
2017-09-27T02:49:29.554Z,1016.76
2017-09-27T02:50:23.569Z,1016.78
2017-09-27T02:51:23.569Z,1016.79
2017-09-27T02:52:18.694Z,1016.75
2017-09-27T02:53:13.668Z,1016.76
2017-09-27T02:54:14.674Z,1016.76
2017-09-27T02:55:14.781Z,1016.79
2017-09-27T02:56:14.785Z,1016.77
2017-09-27T02:57:09.763Z,1016.76
2017-09-27T02:58:03.847Z,1016.78
2017-09-27T02:59:04.866Z,1016.81
2017-09-27T03:00:04.998Z,1016.79
2017-09-27T03:00:59.977Z,1016.83
2017-09-27T03:01:47.964Z,1016.80
2017-09-27T03:02:36.238Z,1016.82
2017-09-27T03:03:24.038Z,1016.83
2017-09-27T03:04:12.053Z,1016.84
2017-09-27T03:05:01.302Z,1016.83
2017-09-27T03:05:49.558Z,1016.85
2017-09-27T03:06:37.230Z,1016.85
2017-09-27T03:07:26.228Z,1016.86
2017-09-27T03:08:14.283Z,1016.82
2017-09-27T03:09:02.312Z,1016.86
2017-09-27T03:09:50.390Z,1016.82
2017-09-27T03:10:39.739Z,1016.84
2017-09-27T03:11:27.433Z,1016.85
2017-09-27T03:12:16.785Z,1016.84
2017-09-27T03:13:04.850Z,1016.87
2017-09-27T03:13:52.564Z,1016.88
2017-09-27T03:14:41.885Z,1016.82
2017-09-27T03:15:29.894Z,1016.85
2017-09-27T03:16:18.738Z,1016.87
2017-09-27T03:17:06.821Z,1016.86
2017-09-27T03:17:55.914Z,1016.85
2017-09-27T03:18:45.401Z,1016.84
2017-09-27T03:19:34.432Z,1016.87
2017-09-27T03:20:23.756Z,1016.85
2017-09-27T03:21:24.208Z,1016.87
2017-09-27T03:22:19.235Z,1016.90
2017-09-27T03:23:08.310Z,1016.93
2017-09-27T03:23:57.329Z,1016.94
2017-09-27T03:24:45.339Z,1016.93
2017-09-27T03:25:33.813Z,1016.93
2017-09-27T03:26:23.214Z,1016.95
2017-09-27T03:27:12.664Z,1016.95
2017-09-27T03:28:01.446Z,1016.95
2017-09-27T03:28:50.800Z,1016.97
2017-09-27T03:29:38.550Z,1016.97
2017-09-27T03:30:26.935Z,1016.95
2017-09-27T03:31:26.643Z,1016.96
2017-09-27T03:32:20.694Z,1016.96
2017-09-27T03:33:15.511Z,1016.97
2017-09-27T03:34:18.013Z,1016.95
2017-09-27T03:35:19.648Z,1016.93
2017-09-27T03:36:19.714Z,1016.94
2017-09-27T03:37:19.756Z,1016.92
2017-09-27T03:38:13.813Z,1016.90
2017-09-27T03:39:01.943Z,1016.92
2017-09-27T03:39:51.053Z,1016.92
2017-09-27T03:40:45.290Z,1016.90
2017-09-27T03:41:39.055Z,1016.91
2017-09-27T03:42:34.745Z,1016.93
2017-09-27T03:43:30.469Z,1016.93
2017-09-27T03:44:20.960Z,1016.91
2017-09-27T03:45:15.422Z,1016.88
2017-09-27T03:46:03.453Z,1016.88
2017-09-27T03:46:58.656Z,1016.89
2017-09-27T03:47:47.755Z,1016.90
2017-09-27T03:48:35.865Z,1016.88
2017-09-27T03:49:25.043Z,1016.86
2017-09-27T03:50:14.037Z,1016.87
2017-09-27T03:51:03.032Z,1016.86
2017-09-27T03:51:58.058Z,1016.83
2017-09-27T03:52:52.119Z,1016.85
2017-09-27T03:53:47.139Z,1016.85
2017-09-27T03:54:41.166Z,1016.83
2017-09-27T03:55:41.169Z,1016.81
2017-09-27T03:56:35.461Z,1016.83
2017-09-27T03:57:29.314Z,1016.83
2017-09-27T03:58:24.295Z,1016.86
2017-09-27T03:59:18.337Z,1016.84
2017-09-27T04:00:18.362Z,1016.88
2017-09-27T04:01:13.372Z,1016.87
2017-09-27T04:02:13.439Z,1016.90
2017-09-27T04:03:07.470Z,1016.89
2017-09-27T04:04:08.488Z,1016.91
2017-09-27T04:05:08.683Z,1016.91
2017-09-27T04:06:03.622Z,1016.96
2017-09-27T04:06:51.961Z,1016.94
2017-09-27T04:07:39.727Z,1016.93
2017-09-27T04:08:27.847Z,1016.92
2017-09-27T04:09:15.815Z,1016.95
2017-09-27T04:10:03.911Z,1016.95
2017-09-27T04:10:52.202Z,1016.97
2017-09-27T04:11:41.094Z,1016.96
2017-09-27T04:12:29.102Z,1016.91
2017-09-27T04:13:17.080Z,1016.94
2017-09-27T04:14:06.308Z,1016.93
2017-09-27T04:14:55.147Z,1016.89
2017-09-27T04:15:44.572Z,1016.91
2017-09-27T04:16:33.410Z,1016.89
2017-09-27T04:17:21.805Z,1016.87
2017-09-27T04:18:15.784Z,1016.92
2017-09-27T04:19:09.873Z,1016.89
2017-09-27T04:20:03.651Z,1016.92
2017-09-27T04:20:58.993Z,1016.94
2017-09-27T04:21:53.603Z,1016.94
2017-09-27T04:22:41.637Z,1016.91
2017-09-27T04:23:30.703Z,1016.89
2017-09-27T04:24:18.750Z,1016.92
2017-09-27T04:25:06.758Z,1016.88
2017-09-27T04:26:07.795Z,1016.90
2017-09-27T04:27:01.835Z,1016.88
2017-09-27T04:28:01.987Z,1016.91
2017-09-27T04:28:56.987Z,1016.88
2017-09-27T04:29:52.055Z,1016.90
2017-09-27T04:30:52.257Z,1016.90
2017-09-27T04:31:47.024Z,1016.90
2017-09-27T04:32:42.305Z,1016.94
2017-09-27T04:33:42.077Z,1016.94
2017-09-27T04:34:37.282Z,1016.93
2017-09-27T04:35:32.508Z,1016.97
2017-09-27T04:36:33.167Z,1016.94
2017-09-27T04:37:33.230Z,1016.95
2017-09-27T04:38:33.266Z,1016.93
2017-09-27T04:39:28.271Z,1016.95
2017-09-27T04:40:22.531Z,1016.91
2017-09-27T04:41:22.364Z,1016.88
2017-09-27T04:42:17.364Z,1016.93
2017-09-27T04:43:17.430Z,1016.94
2017-09-27T04:44:17.453Z,1016.96
2017-09-27T04:45:17.458Z,1016.94
2017-09-27T04:46:11.535Z,1016.95
2017-09-27T04:46:59.568Z,1016.97
2017-09-27T04:47:47.645Z,1016.95
2017-09-27T04:48:36.661Z,1017.02
2017-09-27T04:49:25.669Z,1016.99
2017-09-27T04:50:19.736Z,1016.99
2017-09-27T04:51:14.236Z,1017.01
2017-09-27T04:52:01.829Z,1017.00
2017-09-27T04:52:50.825Z,1017.03
2017-09-27T04:53:38.864Z,1016.98
2017-09-27T04:54:33.936Z,1016.96
2017-09-27T04:55:29.278Z,1017.02
2017-09-27T04:56:17.957Z,1016.98
2017-09-27T04:57:13.062Z,1016.96
2017-09-27T04:58:08.365Z,1016.99
2017-09-27T04:59:08.105Z,1016.98
2017-09-27T04:59:57.136Z,1016.97
2017-09-27T05:00:57.151Z,1016.96
2017-09-27T05:01:46.285Z,1016.96
2017-09-27T05:02:41.261Z,1016.98
2017-09-27T05:03:29.263Z,1016.95
2017-09-27T05:04:18.313Z,1016.99
2017-09-27T05:05:12.763Z,1016.98
2017-09-27T05:06:07.411Z,1016.97
2017-09-27T05:07:01.487Z,1017.01
2017-09-27T05:07:56.477Z,1017.01
2017-09-27T05:08:56.499Z,1016.99
2017-09-27T05:09:44.547Z,1017.02
2017-09-27T05:10:39.565Z,1017.04
2017-09-27T05:11:39.621Z,1017.06
2017-09-27T05:12:45.642Z,1017.09
2017-09-27T05:13:40.667Z,1017.10
2017-09-27T05:14:34.717Z,1017.12
2017-09-27T05:15:34.744Z,1017.11
2017-09-27T05:16:29.755Z,1017.11
2017-09-27T05:17:23.837Z,1017.13
2017-09-27T05:18:19.070Z,1017.14
2017-09-27T05:19:18.921Z,1017.17
2017-09-27T05:20:19.918Z,1017.16
2017-09-27T05:21:19.940Z,1017.11
2017-09-27T05:22:19.955Z,1017.10
2017-09-27T05:23:20.011Z,1017.17
2017-09-27T05:24:20.101Z,1017.12
2017-09-27T05:25:14.553Z,1017.11
2017-09-27T05:26:02.403Z,1017.11
2017-09-27T05:26:51.149Z,1017.13
2017-09-27T05:27:51.160Z,1017.18
2017-09-27T05:28:45.251Z,1017.18
2017-09-27T05:29:46.276Z,1017.16
2017-09-27T05:30:40.274Z,1017.18
2017-09-27T05:31:40.350Z,1017.22
2017-09-27T05:32:35.369Z,1017.21
2017-09-27T05:33:30.373Z,1017.19
2017-09-27T05:34:24.432Z,1017.25
2017-09-27T05:35:20.059Z,1017.28
2017-09-27T05:36:20.491Z,1017.24
2017-09-27T05:37:23.016Z,1017.24
2017-09-27T05:38:25.464Z,1017.23
2017-09-27T05:39:16.949Z,1017.21
2017-09-27T05:40:08.569Z,1017.24
2017-09-27T05:41:04.941Z,1017.22
2017-09-27T05:42:02.426Z,1017.25
2017-09-27T05:42:59.997Z,1017.27
2017-09-27T05:44:03.427Z,1017.28
2017-09-27T05:45:00.936Z,1017.32
2017-09-27T05:45:57.357Z,1017.30
2017-09-27T05:46:47.987Z,1017.32
2017-09-27T05:47:39.355Z,1017.34
2017-09-27T05:48:35.844Z,1017.33
2017-09-27T05:49:26.318Z,1017.32
2017-09-27T05:50:22.940Z,1017.37
2017-09-27T05:51:20.301Z,1017.31
2017-09-27T05:52:22.790Z,1017.35
2017-09-27T05:53:20.258Z,1017.37
2017-09-27T05:54:17.791Z,1017.40
2017-09-27T05:55:20.524Z,1017.39
2017-09-27T05:56:22.736Z,1017.39
2017-09-27T05:57:26.332Z,1017.37
2017-09-27T05:58:23.731Z,1017.40
2017-09-27T05:59:20.158Z,1017.40
2017-09-27T06:00:18.075Z,1017.39
2017-09-27T06:01:14.158Z,1017.35
2017-09-27T06:02:11.655Z,1017.37
2017-09-27T06:03:14.095Z,1017.38
2017-09-27T06:04:16.255Z,1017.35
2017-09-27T06:05:13.867Z,1017.40
2017-09-27T06:06:16.098Z,1017.36
2017-09-27T06:07:12.890Z,1017.37
2017-09-27T06:08:09.046Z,1017.38
2017-09-27T06:09:06.845Z,1017.36
2017-09-27T06:10:09.038Z,1017.38
2017-09-27T06:11:11.808Z,1017.39
2017-09-27T06:12:08.869Z,1017.38
2017-09-27T06:13:05.360Z,1017.39
2017-09-27T06:14:02.838Z,1017.36
2017-09-27T06:14:59.329Z,1017.36
2017-09-27T06:15:55.798Z,1017.38
2017-09-27T06:16:59.260Z,1017.38
2017-09-27T06:18:01.765Z,1017.38
2017-09-27T06:18:58.313Z,1017.36
2017-09-27T06:20:00.769Z,1017.40
2017-09-27T06:21:03.257Z,1017.43
2017-09-27T06:22:05.721Z,1017.36
2017-09-27T06:23:02.209Z,1017.37
2017-09-27T06:24:04.661Z,1017.45
2017-09-27T06:25:07.246Z,1017.40
2017-09-27T06:26:03.680Z,1017.42
2017-09-27T06:27:01.147Z,1017.42
2017-09-27T06:27:58.638Z,1017.36
2017-09-27T06:29:07.130Z,1017.39
2017-09-27T06:30:04.574Z,1017.44
2017-09-27T06:31:02.064Z,1017.45
2017-09-27T06:31:59.975Z,1017.45
2017-09-27T06:32:57.054Z,1017.47
2017-09-27T06:33:54.543Z,1017.47
2017-09-27T06:34:52.039Z,1017.47
2017-09-27T06:35:49.530Z,1017.49
2017-09-27T06:36:46.588Z,1017.47
2017-09-27T06:37:49.016Z,1017.45
2017-09-27T06:38:51.632Z,1017.47
2017-09-27T06:39:48.955Z,1017.44
2017-09-27T06:40:39.471Z,1017.50
2017-09-27T06:41:30.951Z,1017.48
2017-09-27T06:42:21.633Z,1017.46
2017-09-27T06:43:13.177Z,1017.42
2017-09-27T06:44:03.458Z,1017.44
2017-09-27T06:44:59.973Z,1017.47
2017-09-27T06:45:57.833Z,1017.45
2017-09-27T06:47:00.889Z,1017.53
2017-09-27T06:47:57.385Z,1017.44
2017-09-27T06:48:53.938Z,1017.49
2017-09-27T06:49:56.368Z,1017.43
2017-09-27T06:50:52.864Z,1017.41
2017-09-27T06:51:44.343Z,1017.41
2017-09-27T06:52:41.867Z,1017.43
2017-09-27T06:53:44.344Z,1017.41
2017-09-27T06:54:41.836Z,1017.42
2017-09-27T06:55:39.321Z,1017.42
2017-09-27T06:56:42.921Z,1017.43
2017-09-27T06:57:51.263Z,1017.42
2017-09-27T06:58:54.764Z,1017.46
2017-09-27T06:59:57.253Z,1017.50
2017-09-27T07:00:54.729Z,1017.50
2017-09-27T07:01:51.594Z,1017.48
2017-09-27T07:02:48.707Z,1017.46
2017-09-27T07:03:51.165Z,1017.49
2017-09-27T07:04:53.698Z,1017.53
2017-09-27T07:06:03.150Z,1017.52
2017-09-27T07:06:53.944Z,1017.48
2017-09-27T07:07:56.339Z,1017.50
2017-09-27T07:08:52.653Z,1017.48
2017-09-27T07:09:43.099Z,1017.54
2017-09-27T07:10:34.993Z,1017.52
2017-09-27T07:11:31.056Z,1017.50
2017-09-27T07:12:21.715Z,1017.51
2017-09-27T07:13:13.053Z,1017.51
2017-09-27T07:14:10.552Z,1017.50
2017-09-27T07:15:08.091Z,1017.55
2017-09-27T07:16:11.541Z,1017.53
2017-09-27T07:17:08.234Z,1017.53
2017-09-27T07:17:59.527Z,1017.53
2017-09-27T07:18:56.029Z,1017.55
2017-09-27T07:20:04.485Z,1017.55
2017-09-27T07:21:01.981Z,1017.54
2017-09-27T07:21:52.465Z,1017.59
2017-09-27T07:22:48.950Z,1017.57
2017-09-27T07:23:45.450Z,1017.55
2017-09-27T07:24:43.130Z,1017.63
2017-09-27T07:25:45.441Z,1017.63
2017-09-27T07:26:48.921Z,1017.61
2017-09-27T07:27:57.442Z,1017.65
2017-09-27T07:29:00.079Z,1017.66
2017-09-27T07:30:03.356Z,1017.69
2017-09-27T07:30:59.887Z,1017.69
2017-09-27T07:31:56.349Z,1017.66
2017-09-27T07:32:53.861Z,1017.68
2017-09-27T07:33:51.766Z,1017.66
2017-09-27T07:34:47.805Z,1017.67
2017-09-27T07:35:50.324Z,1017.69
2017-09-27T07:36:41.766Z,1017.70
2017-09-27T07:37:38.258Z,1017.70
2017-09-27T07:38:35.765Z,1017.73
2017-09-27T07:39:38.256Z,1017.75
2017-09-27T07:40:34.750Z,1017.68
2017-09-27T07:41:37.268Z,1017.70
2017-09-27T07:42:39.737Z,1017.72
2017-09-27T07:43:36.510Z,1017.72
2017-09-27T07:44:33.087Z,1017.73
2017-09-27T07:45:29.787Z,1017.75
2017-09-27T07:46:26.029Z,1017.73
2017-09-27T07:47:22.545Z,1017.73
2017-09-27T07:48:19.974Z,1017.73
2017-09-27T07:49:11.470Z,1017.73
2017-09-27T07:50:07.966Z,1017.76
2017-09-27T07:51:05.272Z,1017.79
2017-09-27T07:52:01.937Z,1017.78
2017-09-27T07:52:59.250Z,1017.79
2017-09-27T07:54:00.228Z,1017.84
2017-09-27T07:54:51.869Z,1017.81
2017-09-27T07:55:49.185Z,1017.84
2017-09-27T07:56:52.707Z,1017.83
2017-09-27T07:57:43.639Z,1017.82
2017-09-27T07:58:46.066Z,1017.81
2017-09-27T07:59:42.566Z,1017.82
2017-09-27T08:00:39.080Z,1017.84
2017-09-27T08:01:35.566Z,1017.83
2017-09-27T08:02:33.077Z,1017.84
2017-09-27T08:03:29.560Z,1017.87
2017-09-27T08:04:32.053Z,1017.82
2017-09-27T08:05:34.514Z,1017.85
2017-09-27T08:06:26.030Z,1017.85
2017-09-27T08:07:16.512Z,1017.85
2017-09-27T08:08:14.163Z,1017.84
2017-09-27T08:09:11.462Z,1017.85
2017-09-27T08:10:14.440Z,1017.88
2017-09-27T08:11:16.462Z,1017.87
2017-09-27T08:12:18.954Z,1017.90
2017-09-27T08:13:15.459Z,1017.92
2017-09-27T08:14:17.654Z,1017.94
2017-09-27T08:15:20.523Z,1017.93
2017-09-27T08:16:22.584Z,1017.98
2017-09-27T08:17:20.132Z,1017.95
2017-09-27T08:18:23.748Z,1017.96
2017-09-27T08:19:21.058Z,1017.99
2017-09-27T08:20:19.027Z,1017.99
2017-09-27T08:21:21.063Z,1018.01
2017-09-27T08:22:24.786Z,1017.97
2017-09-27T08:23:22.264Z,1018.01
2017-09-27T08:24:19.937Z,1018.05
2017-09-27T08:25:22.764Z,1018.04
2017-09-27T08:26:24.537Z,1018.06
2017-09-27T08:27:27.971Z,1018.05
2017-09-27T08:28:25.869Z,1018.08
2017-09-27T08:29:23.004Z,1018.07
2017-09-27T08:30:25.455Z,1018.04
2017-09-27T08:31:28.942Z,1018.05
2017-09-27T08:32:26.855Z,1018.04
2017-09-27T08:33:28.880Z,1018.06
2017-09-27T08:34:31.392Z,1018.05
2017-09-27T08:35:33.937Z,1018.06
2017-09-27T08:36:30.384Z,1018.02
2017-09-27T08:37:26.901Z,1018.06
2017-09-27T08:38:18.427Z,1018.08
2017-09-27T08:39:10.422Z,1018.06
2017-09-27T08:40:00.369Z,1018.09
2017-09-27T08:40:52.058Z,1018.06
2017-09-27T08:41:48.419Z,1018.12
2017-09-27T08:42:45.940Z,1018.07
2017-09-27T08:43:43.357Z,1018.09
2017-09-27T08:44:45.838Z,1018.05
2017-09-27T08:45:42.321Z,1018.00
2017-09-27T08:46:44.846Z,1018.04
2017-09-27T08:47:47.331Z,1018.05
2017-09-27T08:48:39.062Z,1018.06
2017-09-27T08:49:35.556Z,1018.04
2017-09-27T08:50:31.796Z,1018.06
2017-09-27T08:51:28.266Z,1018.05
2017-09-27T08:52:25.886Z,1018.10
2017-09-27T08:53:22.275Z,1018.12
2017-09-27T08:54:24.793Z,1018.06
2017-09-27T08:55:28.255Z,1018.08
2017-09-27T08:56:30.765Z,1018.08
2017-09-27T08:57:27.266Z,1018.10
2017-09-27T08:58:23.757Z,1018.05
2017-09-27T08:59:20.258Z,1018.00
2017-09-27T09:00:17.197Z,1017.98
2017-09-27T09:01:14.510Z,1018.00
2017-09-27T09:02:11.824Z,1018.04
2017-09-27T09:03:14.247Z,1018.03
2017-09-27T09:04:10.727Z,1018.02
2017-09-27T09:05:07.223Z,1018.02
2017-09-27T09:06:03.052Z,1017.93
2017-09-27T09:07:05.633Z,1017.95
2017-09-27T09:08:08.196Z,1017.91
2017-09-27T09:08:59.559Z,1017.89
2017-09-27T09:09:56.258Z,1017.89
2017-09-27T09:10:47.526Z,1017.87
2017-09-27T09:11:50.036Z,1017.85
2017-09-27T09:12:53.523Z,1017.87
2017-09-27T09:13:51.119Z,1017.85
2017-09-27T09:14:47.548Z,1017.91
2017-09-27T09:15:45.157Z,1017.88
2017-09-27T09:16:47.825Z,1017.89
2017-09-27T09:17:50.386Z,1017.89
2017-09-27T09:18:52.945Z,1017.91
2017-09-27T09:19:50.218Z,1017.87
2017-09-27T09:20:41.809Z,1017.86
2017-09-27T09:21:38.198Z,1017.90
2017-09-27T09:22:28.829Z,1017.89
2017-09-27T09:23:20.354Z,1017.94
2017-09-27T09:24:10.857Z,1017.93
2017-09-27T09:25:07.410Z,1017.90
2017-09-27T09:25:58.870Z,1017.92
2017-09-27T09:26:56.415Z,1017.94
2017-09-27T09:27:53.910Z,1017.90
2017-09-27T09:28:56.434Z,1017.89
2017-09-27T09:29:52.904Z,1017.89
2017-09-27T09:30:43.359Z,1017.91
2017-09-27T09:31:34.927Z,1017.86
2017-09-27T09:32:26.399Z,1017.84
2017-09-27T09:33:17.884Z,1017.87
2017-09-27T09:34:08.375Z,1017.85
2017-09-27T09:34:58.686Z,1017.87
2017-09-27T09:35:53.641Z,1017.85
2017-09-27T09:36:49.560Z,1017.83
2017-09-27T09:37:43.864Z,1017.82
2017-09-27T09:38:44.801Z,1017.82
2017-09-27T09:39:36.437Z,1017.81
2017-09-27T09:40:31.782Z,1017.79
2017-09-27T09:41:22.340Z,1017.80
2017-09-27T09:42:17.181Z,1017.81
2017-09-27T09:43:13.945Z,1017.81
2017-09-27T09:44:05.337Z,1017.79
2017-09-27T09:45:01.942Z,1017.76
2017-09-27T09:45:58.449Z,1017.72
2017-09-27T09:46:48.949Z,1017.72
2017-09-27T09:47:45.433Z,1017.70
2017-09-27T09:48:41.880Z,1017.69
2017-09-27T09:49:39.396Z,1017.64
2017-09-27T09:50:41.929Z,1017.65
2017-09-27T09:51:33.332Z,1017.64
2017-09-27T09:52:23.929Z,1017.68
2017-09-27T09:53:14.449Z,1017.60
2017-09-27T09:54:04.955Z,1017.57
2017-09-27T09:55:01.500Z,1017.60
2017-09-27T09:56:03.904Z,1017.64
2017-09-27T09:57:01.478Z,1017.67
2017-09-27T09:57:52.001Z,1017.65
2017-09-27T09:58:49.460Z,1017.64
2017-09-27T09:59:46.996Z,1017.64
2017-09-27T10:00:38.486Z,1017.67
2017-09-27T10:01:41.036Z,1017.61
2017-09-27T10:02:32.473Z,1017.72
2017-09-27T10:03:27.685Z,1017.71
2017-09-27T10:04:16.402Z,1017.68
2017-09-27T10:05:11.459Z,1017.69
2017-09-27T10:06:00.744Z,1017.68
2017-09-27T10:06:54.802Z,1017.69
2017-09-27T10:07:50.639Z,1017.66
2017-09-27T10:08:53.074Z,1017.61
2017-09-27T10:09:55.640Z,1017.63
2017-09-27T10:10:50.633Z,1017.61
2017-09-27T10:11:45.767Z,1017.57
2017-09-27T10:12:40.774Z,1017.53
2017-09-27T10:13:35.052Z,1017.54
2017-09-27T10:14:29.157Z,1017.53
2017-09-27T10:15:23.235Z,1017.52
2017-09-27T10:16:18.344Z,1017.49
2017-09-27T10:17:07.411Z,1017.50
2017-09-27T10:18:01.462Z,1017.53
2017-09-27T10:18:56.557Z,1017.53
2017-09-27T10:19:45.799Z,1017.52
2017-09-27T10:20:40.063Z,1017.58
2017-09-27T10:21:29.885Z,1017.56
2017-09-27T10:22:18.920Z,1017.63
2017-09-27T10:23:19.430Z,1017.58
2017-09-27T10:24:08.855Z,1017.57
2017-09-27T10:25:03.426Z,1017.56
2017-09-27T10:25:57.429Z,1017.56
2017-09-27T10:26:58.520Z,1017.48
2017-09-27T10:27:53.826Z,1017.61
2017-09-27T10:28:48.933Z,1017.50
2017-09-27T10:29:37.974Z,1017.55
2017-09-27T10:30:27.236Z,1017.54
2017-09-27T10:31:15.780Z,1017.62
2017-09-27T10:32:11.397Z,1017.52
2017-09-27T10:33:08.843Z,1017.52
2017-09-27T10:34:10.603Z,1017.52
2017-09-27T10:35:07.086Z,1017.54
2017-09-27T10:36:03.635Z,1017.56
2017-09-27T10:37:01.109Z,1017.56
2017-09-27T10:37:57.641Z,1017.55
2017-09-27T10:38:59.535Z,1017.60
2017-09-27T10:39:49.978Z,1017.48
2017-09-27T10:40:46.998Z,1017.48
2017-09-27T10:41:43.484Z,1017.47
2017-09-27T10:42:45.645Z,1017.49
2017-09-27T10:43:42.213Z,1017.50
2017-09-27T10:44:44.724Z,1017.47
2017-09-27T10:45:36.134Z,1017.58
2017-09-27T10:46:27.711Z,1017.53
2017-09-27T10:47:19.248Z,1017.49
2017-09-27T10:48:15.728Z,1017.50
2017-09-27T10:49:07.193Z,1017.51
2017-09-27T10:50:04.746Z,1017.50
2017-09-27T10:51:02.101Z,1017.48
2017-09-27T10:51:58.708Z,1017.52
2017-09-27T10:52:55.170Z,1017.46
2017-09-27T10:53:45.732Z,1017.52
2017-09-27T10:54:36.219Z,1017.45
2017-09-27T10:55:33.723Z,1017.52
2017-09-27T10:56:24.266Z,1017.44
2017-09-27T10:57:21.744Z,1017.44
2017-09-27T10:58:19.275Z,1017.35
2017-09-27T10:59:16.943Z,1017.40
2017-09-27T11:00:20.362Z,1017.43
2017-09-27T11:01:16.560Z,1017.39
2017-09-27T11:02:13.215Z,1017.42
2017-09-27T11:03:04.843Z,1017.40
2017-09-27T11:04:07.038Z,1017.40
2017-09-27T11:05:03.366Z,1017.42
2017-09-27T11:06:00.975Z,1017.39